Terminal Aerodrome Forecast
Issued by NWS

Current Version | Previous Version | Text Only | Print | Product List | Glossary Off
Versions: 1 2 3 4 5 6 7 8 9 10 11 12 13 14 15 16 17 18 19 20 21 22 23 24

000
FTUS42 KMHX 162300
TAFPGV
TAF
KPGV 162320Z 1700/1724 34003KT P6SM SKC
     FM170200 03004KT P6SM SCT040
     FM170800 04003KT 5SM BR BKN030
     FM171300 11005KT P6SM SCT030
     FM171900 08006KT P6SM BKN035
      AMD LTD TO CLD VIS AND WIND=

USA.gov is the U.S. government's official web portal to all federal, state and local government web resources and services.